Time;durP1;ratioP1;P1;durP2;ratioP2;P2;SDS_P1;SDS_P2;PMS_P1;PMS_P2;Temp;Humidity;BMP_temperature;BMP_pressure;BME280_temperature;BME280_humidity;BME280_pressure;Samples;Min_cycle;Max_cycle;Signal;HPM_P1;HPM_P2
2023/04/03 00:00:49;;;;;;;25.90;12.98;;;;;;;4.04;100.00;102585.06;5066030;28;20052;-73
2023/04/03 00:03:17;;;;;;;25.80;13.30;;;;;;;4.02;100.00;102595.53;5068278;28;20485;-73
2023/04/03 00:05:43;;;;;;;30.05;14.27;;;;;;;3.99;100.00;102591.47;5047207;28;20052;-73
2023/04/03 00:08:10;;;;;;;27.40;12.98;;;;;;;3.96;100.00;102596.75;5068788;28;20048;-75
2023/04/03 00:10:37;;;;;;;26.35;13.20;;;;;;;3.92;100.00;102596.53;5065252;28;20533;-73
2023/04/03 00:13:05;;;;;;;26.30;13.10;;;;;;;3.84;100.00;102596.47;5062990;28;20060;-75
2023/04/03 00:15:32;;;;;;;23.52;12.13;;;;;;;3.74;100.00;102591.22;5064525;28;20037;-73
2023/04/03 00:17:58;;;;;;;23.75;12.95;;;;;;;3.70;100.00;102599.22;5062081;28;20048;-75
2023/04/03 00:20:27;;;;;;;23.30;12.25;;;;;;;3.57;100.00;102594.56;5060808;28;20522;-73
2023/04/03 00:22:53;;;;;;;23.95;13.02;;;;;;;3.58;100.00;102598.91;5061580;28;20507;-74
2023/04/03 00:25:20;;;;;;;26.02;12.57;;;;;;;3.57;100.00;102599.22;5061715;28;20053;-73
2023/04/03 00:27:47;;;;;;;23.23;11.95;;;;;;;3.54;100.00;102603.38;5064305;28;20127;-74
2023/04/03 00:30:17;;;;;;;26.00;12.93;;;;;;;3.50;100.00;102602.38;5058155;28;20053;-73
2023/04/03 00:32:44;;;;;;;22.55;10.85;;;;;;;3.51;100.00;102598.53;5064303;28;20446;-74
2023/04/03 00:35:10;;;;;;;24.08;11.63;;;;;;;3.54;100.00;102599.84;5065198;28;20056;-73
2023/04/03 00:37:37;;;;;;;20.02;7.22;;;;;;;3.53;100.00;102593.56;5061642;28;20055;-73
2023/04/03 00:40:04;;;;;;;16.90;6.68;;;;;;;3.58;100.00;102601.66;5063797;28;20151;-73
2023/04/03 00:42:31;;;;;;;14.63;6.18;;;;;;;3.71;100.00;102591.84;5063737;28;20388;-73
2023/04/03 00:44:57;;;;;;;14.30;5.25;;;;;;;3.88;100.00;102594.75;5063614;28;20048;-74
2023/04/03 00:47:24;;;;;;;14.32;5.15;;;;;;;3.98;100.00;102595.31;5064654;28;20052;-73
2023/04/03 00:49:52;;;;;;;12.95;4.85;;;;;;;4.09;100.00;102598.66;5059459;28;20098;-74
2023/04/03 00:52:23;;;;;;;13.48;4.25;;;;;;;4.14;100.00;102602.09;5059789;28;20053;-74
2023/04/03 00:54:54;;;;;;;9.38;4.03;;;;;;;4.25;100.00;102600.72;5063847;28;20040;-72
2023/04/03 00:57:22;;;;;;;11.20;4.25;;;;;;;4.31;100.00;102602.25;5061436;28;20066;-74
2023/04/03 00:59:55;;;;;;;11.23;4.03;;;;;;;4.38;100.00;102608.09;5061657;28;20529;-73
2023/04/03 01:02:21;;;;;;;14.57;3.88;;;;;;;4.43;100.00;102610.72;5064844;28;20045;-73
2023/04/03 01:04:48;;;;;;;13.38;3.75;;;;;;;4.48;100.00;102610.59;5048935;28;20565;-75
2023/04/03 01:07:22;;;;;;;12.88;3.72;;;;;;;4.53;100.00;102604.19;5049428;28;20063;-73
2023/04/03 01:09:51;;;;;;;12.85;3.85;;;;;;;4.62;100.00;102605.84;5064037;28;20048;-74
2023/04/03 01:12:20;;;;;;;8.48;3.10;;;;;;;4.67;100.00;102615.91;5065731;28;20057;-73
2023/04/03 01:14:50;;;;;;;11.18;3.30;;;;;;;4.70;100.00;102613.31;5064791;28;20897;-74
2023/04/03 01:17:25;;;;;;;13.90;3.50;;;;;;;4.76;100.00;102620.31;5047906;28;20048;-72
2023/04/03 01:20:08;;;;;;;8.75;2.97;;;;;;;4.80;100.00;102617.78;5054419;28;20480;-74
2023/04/03 01:22:48;;;;;;;12.32;3.35;;;;;;;4.81;100.00;102620.19;5057455;28;20044;-72
2023/04/03 01:25:14;;;;;;;10.48;3.35;;;;;;;4.81;100.00;102613.91;5065471;28;20052;-73
2023/04/03 01:27:41;;;;;;;11.75;3.78;;;;;;;4.84;100.00;102611.34;5067016;28;20071;-74
2023/04/03 01:30:08;;;;;;;6.28;2.60;;;;;;;4.86;100.00;102617.31;5064271;28;20471;-74
2023/04/03 01:32:34;;;;;;;12.13;3.30;;;;;;;4.84;100.00;102616.00;5065820;28;20055;-75
2023/04/03 01:35:01;;;;;;;10.43;2.42;;;;;;;4.88;100.00;102617.81;5063565;28;20422;-73
2023/04/03 01:37:30;;;;;;;9.10;2.97;;;;;;;4.89;100.00;102621.34;5065936;28;20063;-74
2023/04/03 01:39:56;;;;;;;10.32;3.15;;;;;;;4.88;100.00;102617.00;5047355;28;20049;-71
2023/04/03 01:42:23;;;;;;;10.10;2.78;;;;;;;4.88;100.00;102620.56;5065474;28;20052;-72
2023/04/03 01:44:49;;;;;;;15.25;3.10;;;;;;;4.87;100.00;102615.38;5066011;28;20048;-73
2023/04/03 01:47:16;;;;;;;8.60;2.53;;;;;;;4.87;100.00;102613.44;5066250;28;20064;-72
2023/04/03 01:49:42;;;;;;;10.45;2.67;;;;;;;4.86;100.00;102613.78;5065235;28;20518;-75
2023/04/03 01:52:09;;;;;;;7.03;2.17;;;;;;;4.88;100.00;102622.50;5062027;28;20454;-73
2023/04/03 01:54:35;;;;;;;9.60;2.63;;;;;;;4.83;100.00;102606.97;5064825;28;20663;-73
2023/04/03 01:57:02;;;;;;;12.68;2.88;;;;;;;4.87;100.00;102610.69;5062164;28;20127;-73
2023/04/03 01:59:29;;;;;;;10.00;2.92;;;;;;;4.87;100.00;102618.13;5063192;28;20748;-73
2023/04/03 02:01:55;;;;;;;13.95;2.55;;;;;;;4.86;100.00;102624.75;5062426;28;20052;-72
2023/04/03 02:04:22;;;;;;;14.77;2.88;;;;;;;4.84;100.00;102625.06;5067250;28;20048;-73
2023/04/03 02:06:49;;;;;;;18.90;2.55;;;;;;;4.81;100.00;102622.94;5065510;28;20472;-72
2023/04/03 02:09:15;;;;;;;7.55;2.72;;;;;;;4.82;100.00;102624.56;5065574;28;20119;-72
2023/04/03 02:11:42;;;;;;;10.32;2.95;;;;;;;4.82;100.00;102627.28;5045048;28;20044;-74
2023/04/03 02:14:08;;;;;;;10.88;3.05;;;;;;;4.81;100.00;102622.13;5059291;28;20049;-73
2023/04/03 02:16:35;;;;;;;10.05;2.67;;;;;;;4.78;100.00;102628.22;5049884;28;20048;-73
2023/04/03 02:19:02;;;;;;;9.93;3.50;;;;;;;4.79;100.00;102635.31;5064757;28;20052;-72
2023/04/03 02:21:28;;;;;;;9.98;2.45;;;;;;;4.79;100.00;102640.81;5041734;28;20050;-74
2023/04/03 02:23:55;;;;;;;12.07;3.50;;;;;;;4.77;100.00;102638.41;5063725;28;20052;-74
2023/04/03 02:26:21;;;;;;;10.40;2.42;;;;;;;4.71;100.00;102636.09;5061823;28;20495;-72
2023/04/03 02:28:48;;;;;;;8.20;2.60;;;;;;;4.68;100.00;102647.69;5066511;28;20059;-73
2023/04/03 02:31:15;;;;;;;10.32;2.92;;;;;;;4.69;100.00;102646.56;5061549;28;20674;-73
2023/04/03 02:33:41;;;;;;;8.73;2.30;;;;;;;4.64;100.00;102642.03;5064364;28;20148;-73
2023/04/03 02:36:08;;;;;;;9.68;2.70;;;;;;;4.63;100.00;102643.13;5056121;28;20056;-73
2023/04/03 02:38:35;;;;;;;6.18;2.47;;;;;;;4.58;100.00;102640.50;5058622;28;20060;-73
2023/04/03 02:41:07;;;;;;;8.35;2.50;;;;;;;4.59;100.00;102641.34;5062176;28;20168;-73
2023/04/03 02:43:34;;;;;;;5.88;2.38;;;;;;;4.59;100.00;102644.88;5064372;28;20048;-74
2023/04/03 02:46:05;;;;;;;9.18;2.60;;;;;;;4.57;100.00;102643.56;5047623;28;20044;-73
2023/04/03 02:48:32;;;;;;;11.27;2.65;;;;;;;4.55;100.00;102645.78;5067157;28;20056;-73
2023/04/03 02:50:59;;;;;;;9.30;2.58;;;;;;;4.51;100.00;102645.63;5046112;28;20045;-73
2023/04/03 02:53:25;;;;;;;12.93;2.78;;;;;;;4.53;100.00;102648.84;5065341;28;20054;-73
2023/04/03 02:55:52;;;;;;;12.50;2.88;;;;;;;4.48;100.00;102646.22;5047218;28;20491;-73
2023/04/03 02:58:18;;;;;;;10.95;2.63;;;;;;;4.50;100.00;102656.91;5059657;28;20052;-72
2023/04/03 03:00:45;;;;;;;8.23;2.50;;;;;;;4.46;100.00;102653.16;5058479;28;20049;-73
2023/04/03 03:03:13;;;;;;;9.88;2.60;;;;;;;4.42;100.00;102646.69;5062859;28;20075;-73
2023/04/03 03:05:39;;;;;;;9.55;3.00;;;;;;;4.39;100.00;102647.28;5070668;28;20801;-73
2023/04/03 03:08:06;;;;;;;9.27;2.60;;;;;;;4.34;100.00;102648.22;5065766;28;20063;-73
2023/04/03 03:10:32;;;;;;;10.90;2.85;;;;;;;4.32;100.00;102652.38;5065122;28;20037;-73
2023/04/03 03:12:59;;;;;;;12.45;2.45;;;;;;;4.34;100.00;102650.94;5066042;28;20082;-73
2023/04/03 03:15:26;;;;;;;9.27;2.50;;;;;;;4.34;100.00;102645.47;5070812;28;20067;-73
2023/04/03 03:17:52;;;;;;;10.68;2.70;;;;;;;4.32;100.00;102647.69;5068091;28;20044;-74
2023/04/03 03:20:19;;;;;;;9.60;2.53;;;;;;;4.30;100.00;102655.44;5050162;28;20413;-73
2023/04/03 03:22:45;;;;;;;12.32;2.85;;;;;;;4.28;100.00;102654.91;5064224;28;20052;-72
2023/04/03 03:25:12;;;;;;;10.88;2.78;;;;;;;4.26;100.00;102654.41;5052888;28;20051;-73
2023/04/03 03:27:38;;;;;;;8.65;3.10;;;;;;;4.22;100.00;102658.88;5068430;28;20131;-73
2023/04/03 03:30:05;;;;;;;9.15;2.15;;;;;;;4.21;100.00;102656.44;5068500;28;20059;-73
2023/04/03 03:32:32;;;;;;;9.30;2.67;;;;;;;4.14;100.00;102650.59;5066327;28;20704;-72
2023/04/03 03:34:58;;;;;;;12.50;2.72;;;;;;;4.13;100.00;102658.00;5066800;28;20475;-74
2023/04/03 03:37:25;;;;;;;12.07;2.90;;;;;;;4.07;100.00;102650.19;5068107;28;20048;-73
2023/04/03 03:39:51;;;;;;;8.65;2.38;;;;;;;4.06;100.00;102659.53;5066894;28;20047;-72
2023/04/03 03:42:18;;;;;;;10.23;2.70;;;;;;;4.05;100.00;102661.44;5066227;28;20044;-72
2023/04/03 03:44:45;;;;;;;10.57;3.25;;;;;;;4.03;100.00;102662.88;5067213;28;20056;-73
2023/04/03 03:47:11;;;;;;;6.35;2.30;;;;;;;4.00;100.00;102660.75;5068620;28;20102;-73
2023/04/03 03:49:38;;;;;;;10.18;3.00;;;;;;;3.99;100.00;102657.22;5067355;28;20044;-73
2023/04/03 03:52:04;;;;;;;12.35;3.38;;;;;;;3.98;100.00;102663.00;5064995;28;20095;-72
2023/04/03 03:54:31;;;;;;;12.93;3.00;;;;;;;3.93;100.00;102655.69;5066834;28;20048;-72
2023/04/03 03:56:57;;;;;;;9.73;2.80;;;;;;;3.88;100.00;102658.53;5066268;28;20517;-74
2023/04/03 03:59:24;;;;;;;11.32;3.15;;;;;;;3.87;100.00;102667.88;5068702;28;20083;-73
2023/04/03 04:01:51;;;;;;;8.55;3.22;;;;;;;3.85;100.00;102661.88;5066639;28;20090;-73
2023/04/03 04:04:17;;;;;;;9.93;2.85;;;;;;;3.80;100.00;102662.00;5046141;28;20053;-72
2023/04/03 04:06:44;;;;;;;13.40;2.83;;;;;;;3.77;100.00;102662.59;5068415;28;20102;-74
2023/04/03 04:09:11;;;;;;;12.55;3.03;;;;;;;3.77;100.00;102659.03;5066964;28;20048;-73
2023/04/03 04:11:39;;;;;;;12.13;3.00;;;;;;;3.79;100.00;102667.78;5066448;28;20048;-72
2023/04/03 04:14:06;;;;;;;11.65;3.10;;;;;;;3.74;100.00;102676.91;5069723;28;20161;-72
2023/04/03 04:16:33;;;;;;;15.48;3.00;;;;;;;3.72;100.00;102678.31;5072873;28;20045;-73
2023/04/03 04:19:02;;;;;;;13.88;2.97;;;;;;;3.70;100.00;102683.28;5059026;28;20152;-73
2023/04/03 04:21:30;;;;;;;15.45;4.03;;;;;;;3.66;100.00;102683.09;5064060;28;20086;-72
2023/04/03 04:23:57;;;;;;;10.43;2.65;;;;;;;3.60;100.00;102672.53;5065856;28;20044;-73
2023/04/03 04:26:24;;;;;;;15.93;2.95;;;;;;;3.63;100.00;102688.34;5068293;28;20047;-73
2023/04/03 04:28:51;;;;;;;9.15;2.45;;;;;;;3.61;100.00;102688.66;5068953;28;20046;-73
2023/04/03 04:31:17;;;;;;;11.77;3.33;;;;;;;3.58;100.00;102681.03;5065612;28;20055;-73
2023/04/03 04:33:44;;;;;;;10.45;2.97;;;;;;;3.54;100.00;102685.50;5065942;28;20048;-73
2023/04/03 04:36:10;;;;;;;11.35;3.20;;;;;;;3.54;100.00;102696.44;5066743;28;20040;-74
2023/04/03 04:38:38;;;;;;;11.75;3.25;;;;;;;3.49;100.00;102688.34;5065225;28;20154;-73
2023/04/03 04:41:04;;;;;;;14.55;3.20;;;;;;;3.42;100.00;102678.91;5048599;28;20127;-73
2023/04/03 04:43:31;;;;;;;11.45;2.70;;;;;;;3.42;100.00;102693.41;5063896;28;20052;-73
2023/04/03 04:46:06;;;;;;;14.18;3.00;;;;;;;3.41;100.00;102696.44;5065706;28;20041;-72
2023/04/03 04:48:33;;;;;;;12.48;3.20;;;;;;;3.33;100.00;102687.00;5062724;28;20087;-71
2023/04/03 04:51:00;;;;;;;16.15;3.58;;;;;;;3.37;100.00;102692.69;5065016;28;20048;-73
2023/04/03 04:53:26;;;;;;;8.30;3.03;;;;;;;3.32;100.00;102699.06;5064465;28;20127;-73
2023/04/03 04:55:53;;;;;;;14.98;3.35;;;;;;;3.29;100.00;102699.66;5064533;28;20051;-73
2023/04/03 04:58:20;;;;;;;10.13;2.90;;;;;;;3.27;100.00;102701.09;5062648;28;20152;-73
2023/04/03 05:00:46;;;;;;;10.90;2.83;;;;;;;3.28;100.00;102708.16;5066515;28;20049;-73
2023/04/03 05:03:13;;;;;;;15.80;3.70;;;;;;;3.21;100.00;102710.50;5064016;28;20055;-73
2023/04/03 05:05:39;;;;;;;13.20;3.20;;;;;;;3.23;100.00;102717.28;5067175;28;20059;-74
2023/04/03 05:08:08;;;;;;;13.20;2.72;;;;;;;3.20;100.00;102715.13;5069202;28;20040;-74
2023/04/03 05:10:34;;;;;;;12.30;3.20;;;;;;;3.21;100.00;102719.50;5066436;28;20045;-73
2023/04/03 05:13:01;;;;;;;11.90;3.22;;;;;;;3.20;100.00;102717.88;5066576;28;20502;-74
2023/04/03 05:15:27;;;;;;;14.88;3.70;;;;;;;3.17;100.00;102723.94;5065841;28;20048;-74
2023/04/03 05:17:54;;;;;;;13.30;3.53;;;;;;;3.14;100.00;102729.22;5066624;28;20450;-74
2023/04/03 05:20:20;;;;;;;15.93;3.45;;;;;;;3.16;100.00;102726.97;5063799;28;20510;-73
2023/04/03 05:22:47;;;;;;;18.08;3.70;;;;;;;3.13;100.00;102730.31;5066567;28;20600;-71
2023/04/03 05:25:13;;;;;;;8.00;2.80;;;;;;;3.18;100.00;102735.69;5067259;28;20052;-74
2023/04/03 05:27:40;;;;;;;14.25;3.45;;;;;;;3.20;100.00;102736.22;5066723;28;20535;-71
2023/04/03 05:30:07;;;;;;;15.23;3.50;;;;;;;3.17;100.00;102734.88;5065588;28;20046;-74
2023/04/03 05:32:33;;;;;;;11.80;3.15;;;;;;;3.11;100.00;102751.69;5065590;28;20045;-72
2023/04/03 05:35:00;;;;;;;16.08;4.13;;;;;;;3.19;100.00;102757.28;5063697;28;20053;-72
2023/04/03 05:37:27;;;;;;;9.40;3.17;;;;;;;3.21;100.00;102757.00;5066422;28;20041;-74
2023/04/03 05:39:53;;;;;;;10.43;2.72;;;;;;;3.21;100.00;102752.34;5065163;28;20079;-72
2023/04/03 05:42:20;;;;;;;13.35;3.30;;;;;;;3.19;100.00;102759.19;5066260;28;20080;-73
2023/04/03 05:44:47;;;;;;;7.90;3.30;;;;;;;3.18;100.00;102757.59;5064692;28;20053;-72
2023/04/03 05:47:13;;;;;;;9.95;2.97;;;;;;;3.21;100.00;102759.72;5069501;28;20064;-72
2023/04/03 05:49:40;;;;;;;13.25;3.28;;;;;;;3.23;100.00;102766.53;5063649;28;20048;-72
2023/04/03 05:52:28;;;;;;;11.32;3.38;;;;;;;3.22;100.00;102767.63;5065795;28;20055;-73
2023/04/03 05:54:56;;;;;;;8.13;2.90;;;;;;;3.23;100.00;102769.25;5063247;28;20086;-73
2023/04/03 05:57:22;;;;;;;8.80;2.80;;;;;;;3.27;100.00;102773.00;5065919;28;20052;-72
2023/04/03 05:59:49;;;;;;;10.02;3.03;;;;;;;3.30;100.00;102782.56;5067275;28;20587;-72
2023/04/03 06:02:20;;;;;;;8.25;2.78;;;;;;;3.32;100.00;102775.69;5071688;28;20052;-73
2023/04/03 06:04:47;;;;;;;9.77;3.00;;;;;;;3.33;100.00;102769.09;5068186;28;20106;-71
2023/04/03 06:07:17;;;;;;;13.88;3.00;;;;;;;3.40;100.00;102777.72;5066545;28;20415;-73
2023/04/03 06:09:43;;;;;;;6.60;1.92;;;;;;;3.40;100.00;102771.44;5067309;28;20059;-74
2023/04/03 06:12:11;;;;;;;9.88;2.90;;;;;;;3.43;100.00;102774.38;5065917;28;20048;-73
2023/04/03 06:14:37;;;;;;;10.70;3.00;;;;;;;3.49;100.00;102775.13;5067483;28;20586;-72
2023/04/03 06:17:04;;;;;;;8.52;2.95;;;;;;;3.52;100.00;102778.06;5066434;28;20102;-73
2023/04/03 06:19:32;;;;;;;13.27;3.10;;;;;;;3.57;100.00;102782.63;5065498;28;20426;-72
2023/04/03 06:21:58;;;;;;;12.57;3.58;;;;;;;3.60;100.00;102776.56;5067752;28;20055;-73
2023/04/03 06:24:25;;;;;;;13.20;3.28;;;;;;;3.60;100.00;102774.63;5067205;28;20048;-73
2023/04/03 06:26:52;;;;;;;14.63;3.47;;;;;;;3.65;100.00;102782.75;5064268;28;20098;-73
2023/04/03 06:29:20;;;;;;;16.70;3.50;;;;;;;3.68;100.00;102773.94;5063894;28;20056;-73
2023/04/03 06:31:47;;;;;;;13.93;3.78;;;;;;;3.75;100.00;102785.31;5065968;28;20107;-76
2023/04/03 06:34:14;;;;;;;14.45;3.28;;;;;;;3.74;100.00;102782.91;5066501;28;20060;-76
2023/04/03 06:36:41;;;;;;;12.70;3.03;;;;;;;3.82;100.00;102771.22;5064552;28;20044;-75
2023/04/03 06:39:11;;;;;;;12.77;2.97;;;;;;;3.85;100.00;102773.38;5067052;28;20052;-75
2023/04/03 06:41:38;;;;;;;11.93;3.35;;;;;;;3.87;100.00;102777.41;5050811;28;20592;-76
2023/04/03 06:44:04;;;;;;;11.45;3.15;;;;;;;3.93;100.00;102772.66;5063709;28;20135;-76
2023/04/03 06:46:32;;;;;;;12.30;2.97;;;;;;;3.97;100.00;102782.72;5050963;28;20053;-77
2023/04/03 06:48:59;;;;;;;6.88;2.58;;;;;;;3.96;100.00;102783.00;5068439;28;20055;-76
2023/04/03 06:51:28;;;;;;;9.02;3.03;;;;;;;4.01;100.00;102783.72;5072886;28;20166;-74
2023/04/03 06:53:58;;;;;;;11.65;3.03;;;;;;;4.04;100.00;102780.38;5074838;28;20052;-76
2023/04/03 06:56:26;;;;;;;9.75;2.42;;;;;;;4.09;100.00;102784.94;5069295;28;20611;-75
2023/04/03 06:58:54;;;;;;;15.73;2.72;;;;;;;4.07;100.00;102793.47;5066672;28;20101;-76
2023/04/03 07:01:21;;;;;;;11.10;2.97;;;;;;;4.16;100.00;102802.63;5067493;28;20063;-75
2023/04/03 07:03:48;;;;;;;9.10;2.65;;;;;;;4.21;100.00;102805.25;5066546;28;20059;-75
2023/04/03 07:06:17;;;;;;;10.70;2.90;;;;;;;4.29;100.00;102803.72;5070348;28;20083;-78
2023/04/03 07:08:45;;;;;;;10.63;3.53;;;;;;;4.31;100.00;102810.53;5068315;28;20052;-74
2023/04/03 07:11:12;;;;;;;12.85;3.28;;;;;;;4.31;100.00;102799.56;5050667;28;20139;-78
2023/04/03 07:13:39;;;;;;;9.25;2.72;;;;;;;4.33;100.00;102807.47;5065764;28;20140;-75
2023/04/03 07:16:07;;;;;;;14.18;3.17;;;;;;;4.39;100.00;102806.25;5061780;28;20048;-75
2023/04/03 07:18:34;;;;;;;11.68;3.60;;;;;;;4.41;100.00;102810.31;5068816;28;20055;-77
2023/04/03 07:21:01;;;;;;;11.05;3.53;;;;;;;4.46;100.00;102814.88;5066624;28;20048;-73
2023/04/03 07:23:28;;;;;;;11.77;2.95;;;;;;;4.54;100.00;102815.00;5064816;28;20131;-76
2023/04/03 07:25:55;;;;;;;10.80;2.63;;;;;;;4.58;100.00;102817.91;5064643;28;20046;-77
2023/04/03 07:28:25;;;;;;;11.55;3.30;;;;;;;4.63;100.00;102831.53;5064484;28;20045;-75
2023/04/03 07:31:01;;;;;;;11.60;3.25;;;;;;;4.68;100.00;102826.75;5068655;28;20048;-75
2023/04/03 07:33:27;;;;;;;10.70;2.45;;;;;;;4.78;100.00;102837.50;5061308;28;20076;-74
2023/04/03 07:35:54;;;;;;;11.43;3.35;;;;;;;4.83;100.00;102831.09;5067373;28;20162;-76
2023/04/03 07:38:21;;;;;;;7.78;2.40;;;;;;;4.90;100.00;102832.28;5063657;28;20490;-76
2023/04/03 07:40:49;;;;;;;6.55;2.28;;;;;;;4.94;100.00;102827.81;5058698;28;20786;-74
2023/04/03 07:43:17;;;;;;;11.57;2.65;;;;;;;5.05;100.00;102833.88;5063039;28;20087;-75
2023/04/03 07:45:44;;;;;;;7.88;2.53;;;;;;;5.12;100.00;102832.34;5069429;28;20088;-77
2023/04/03 07:48:12;;;;;;;8.57;2.83;;;;;;;5.15;100.00;102828.97;5061736;28;20040;-75
2023/04/03 07:50:41;;;;;;;9.98;2.67;;;;;;;5.24;100.00;102829.84;5063549;28;20048;-73
2023/04/03 07:53:08;;;;;;;8.98;3.05;;;;;;;5.24;100.00;102829.03;5044769;28;20048;-75
2023/04/03 07:55:40;;;;;;;9.27;2.85;;;;;;;5.36;100.00;102835.59;5043246;28;20048;-76
2023/04/03 07:58:18;;;;;;;8.15;2.72;;;;;;;5.40;100.00;102833.03;5102803;27;20384;-76
2023/04/03 08:00:45;;;;;;;8.23;2.28;;;;;;;5.47;100.00;102839.72;5103314;28;20051;-77
2023/04/03 08:03:13;;;;;;;10.68;2.53;;;;;;;5.54;100.00;102833.81;5097947;28;20077;-76
2023/04/03 08:05:41;;;;;;;10.05;2.63;;;;;;;5.61;100.00;102833.34;5102795;28;20757;-76
2023/04/03 08:08:10;;;;;;;4.22;1.55;;;;;;;5.65;100.00;102837.09;5104198;28;20516;-76
2023/04/03 08:10:37;;;;;;;7.95;2.40;;;;;;;5.75;100.00;102850.56;5098670;28;20048;-74
2023/04/03 08:13:04;;;;;;;6.85;2.10;;;;;;;5.74;100.00;102835.22;5103237;28;20052;-77
2023/04/03 08:15:31;;;;;;;9.70;2.90;;;;;;;5.77;100.00;102842.84;5101654;28;20043;-74
2023/04/03 08:17:59;;;;;;;9.30;3.90;;;;;;;5.75;100.00;102840.41;5101590;28;20047;-76
2023/04/03 08:20:26;;;;;;;5.82;1.77;;;;;;;5.82;100.00;102839.97;5101681;28;20138;-75
2023/04/03 08:22:53;;;;;;;10.75;2.92;;;;;;;5.85;100.00;102842.09;5100758;28;20055;-73
2023/04/03 08:25:20;;;;;;;11.77;2.50;;;;;;;5.96;100.00;102832.47;5099624;28;20074;-74
2023/04/03 08:27:47;;;;;;;7.20;2.17;;;;;;;6.04;100.00;102834.47;5100820;28;20043;-74
2023/04/03 08:30:14;;;;;;;11.23;3.25;;;;;;;6.16;100.00;102842.91;5103575;28;20051;-74
2023/04/03 08:32:42;;;;;;;9.25;2.65;;;;;;;6.36;100.00;102834.91;5095466;28;20060;-76
2023/04/03 08:35:10;;;;;;;8.82;2.55;;;;;;;6.42;100.00;102836.41;5093944;28;20059;-75
2023/04/03 08:37:38;;;;;;;10.57;2.80;;;;;;;6.50;100.00;102840.28;5099023;28;20047;-76
2023/04/03 08:40:06;;;;;;;8.48;2.40;;;;;;;6.55;100.00;102842.91;5103951;28;20075;-76
2023/04/03 08:42:52;;;;;;;7.38;2.67;;;;;;;6.60;100.00;102848.25;5097784;28;20044;-75
2023/04/03 08:45:31;;;;;;;7.60;2.65;;;;;;;6.69;100.00;102851.84;5098683;28;20530;-76
2023/04/03 08:48:11;;;;;;;10.48;2.53;;;;;;;6.81;100.00;102854.78;5102121;28;20047;-76
2023/04/03 08:50:41;;;;;;;3.45;1.88;;;;;;;6.74;100.00;102852.50;5097056;28;20074;-75
2023/04/03 08:53:28;;;;;;;8.80;2.47;;;;;;;6.92;100.00;102859.66;5099356;28;20058;-74
2023/04/03 08:55:55;;;;;;;7.15;2.53;;;;;;;6.99;100.00;102850.94;5097380;28;20512;-76
2023/04/03 08:58:26;;;;;;;10.57;1.73;;;;;;;7.09;100.00;102853.38;5103082;28;20171;-76
2023/04/03 09:01:03;;;;;;;12.85;2.10;;;;;;;7.19;100.00;102842.84;5101760;28;20044;-75
2023/04/03 09:03:40;;;;;;;10.35;2.60;;;;;;;7.20;100.00;102843.69;5099118;28;20129;-75
2023/04/03 09:06:15;;;;;;;7.78;2.08;;;;;;;7.28;100.00;102849.19;5094839;28;20048;-75
2023/04/03 09:09:00;;;;;;;6.63;1.87;;;;;;;7.27;100.00;102849.50;5081234;28;20052;-75
2023/04/03 09:11:32;;;;;;;5.72;1.70;;;;;;;7.42;100.00;102857.28;5080942;28;20044;-74
2023/04/03 09:14:23;;;;;;;7.60;2.15;;;;;;;7.49;100.00;102835.53;5087655;28;20044;-76
2023/04/03 09:16:59;;;;;;;1.75;1.20;;;;;;;7.58;100.00;102845.44;5081851;28;20059;-77
2023/04/03 09:19:34;;;;;;;1.35;0.85;;;;;;;7.73;100.00;102855.16;5087889;28;20059;-76
2023/04/03 09:22:16;;;;;;;6.88;1.77;;;;;;;7.88;100.00;102841.66;5083577;28;20052;-74
2023/04/03 09:24:52;;;;;;;4.43;1.63;;;;;;;7.99;100.00;102851.19;5089077;28;20062;-73
2023/04/03 09:27:18;;;;;;;4.55;1.67;;;;;;;8.11;100.00;102846.94;5080866;28;20067;-73
2023/04/03 09:29:46;;;;;;;7.43;2.05;;;;;;;8.20;100.00;102839.47;5087412;28;20460;-74
2023/04/03 09:32:26;;;;;;;3.92;1.60;;;;;;;8.32;100.00;102848.69;5087565;28;20056;-74
2023/04/03 09:34:56;;;;;;;5.32;1.70;;;;;;;8.37;100.00;102845.72;5087731;28;20497;-73
2023/04/03 09:37:42;;;;;;;9.55;2.17;;;;;;;8.45;100.00;102852.34;5085504;28;20466;-74
2023/04/03 09:40:36;;;;;;;5.32;2.20;;;;;;;8.59;100.00;102847.41;5083633;28;20079;-73
2023/04/03 09:43:23;;;;;;;8.15;2.03;;;;;;;8.73;100.00;102840.53;5087542;28;20055;-74
2023/04/03 09:45:51;;;;;;;6.30;1.83;;;;;;;8.83;100.00;102833.78;5084117;28;20086;-73
2023/04/03 09:48:21;;;;;;;1.75;1.00;;;;;;;8.83;88.51;102837.38;5088910;28;20052;-74
2023/04/03 09:50:50;;;;;;;4.97;1.90;;;;;;;8.83;81.20;102840.13;5085227;28;20753;-74
2023/04/03 09:53:37;;;;;;;8.05;1.77;;;;;;;8.98;81.20;102842.28;5086712;28;20048;-73
2023/04/03 09:56:20;;;;;;;7.88;1.48;;;;;;;9.01;74.11;102840.84;5080136;28;20059;-73
2023/04/03 09:59:03;;;;;;;4.70;1.88;;;;;;;9.08;75.89;102833.63;5084714;28;20098;-72
2023/04/03 10:01:41;;;;;;;8.15;2.22;;;;;;;9.17;74.38;102833.53;5093545;28;20053;-72
2023/04/03 10:04:19;;;;;;;6.40;2.20;;;;;;;9.25;83.56;102838.22;5087427;28;20139;-74
2023/04/03 10:06:51;;;;;;;4.40;1.35;;;;;;;9.41;76.88;102836.44;5085874;28;20140;-73
2023/04/03 10:09:18;;;;;;;6.22;1.77;;;;;;;9.39;72.66;102830.47;5078953;28;20052;-74
2023/04/03 10:11:57;;;;;;;6.10;1.38;;;;;;;9.35;70.04;102833.06;5074486;28;20052;-74
2023/04/03 10:14:23;;;;;;;6.00;1.80;;;;;;;9.34;71.27;102825.94;5084912;28;20060;-74
2023/04/03 10:17:09;;;;;;;2.13;1.00;;;;;;;9.40;69.13;102830.13;5087099;28;20070;-73
2023/04/03 10:19:38;;;;;;;9.45;1.90;;;;;;;9.41;70.41;102826.19;5086842;28;20147;-74
2023/04/03 10:22:19;;;;;;;8.82;1.80;;;;;;;9.57;70.72;102842.97;5084251;28;20650;-74
2023/04/03 10:25:10;;;;;;;7.20;1.88;;;;;;;9.71;72.10;102838.75;5087870;28;20048;-73
2023/04/03 10:27:45;;;;;;;3.65;1.58;;;;;;;9.73;67.61;102825.41;5084164;28;20046;-73
2023/04/03 10:30:28;;;;;;;3.50;1.15;;;;;;;9.72;64.35;102832.06;5080457;28;20514;-74
2023/04/03 10:32:57;;;;;;;9.55;1.63;;;;;;;9.79;67.34;102826.00;5079072;28;20122;-74
2023/04/03 10:35:31;;;;;;;2.95;1.20;;;;;;;9.83;63.76;102824.16;5082498;28;20422;-74
2023/04/03 10:38:21;;;;;;;5.07;1.30;;;;;;;9.94;67.53;102812.34;5084779;28;20123;-74
2023/04/03 10:41:00;;;;;;;6.95;1.60;;;;;;;10.08;68.65;102823.91;5087041;28;20052;-73
2023/04/03 10:43:43;;;;;;;5.78;1.42;;;;;;;10.07;65.66;102816.78;5080268;28;20131;-74
2023/04/03 10:46:40;;;;;;;5.85;1.55;;;;;;;10.26;65.96;102813.44;5085055;28;20040;-74
2023/04/03 10:49:27;;;;;;;3.40;1.40;;;;;;;10.42;66.06;102812.41;5085282;28;20427;-74
2023/04/03 10:52:30;;;;;;;7.80;1.60;;;;;;;10.68;68.70;102814.00;5084278;28;20500;-74
2023/04/03 10:55:26;;;;;;;9.05;2.47;;;;;;;10.71;62.87;102810.53;5086054;28;20059;-74
2023/04/03 10:57:57;;;;;;;5.00;1.70;;;;;;;10.74;61.87;102801.53;5078968;28;20050;-74
2023/04/03 11:00:46;;;;;;;3.17;1.60;;;;;;;10.71;63.37;102793.91;5089313;28;20127;-83
2023/04/03 11:03:22;;;;;;;3.53;1.45;;;;;;;10.86;60.36;102799.56;5088922;28;20792;-76
2023/04/03 11:05:53;;;;;;;9.50;2.00;;;;;;;11.08;61.66;102795.47;5087875;28;20044;-78
2023/04/03 11:08:35;;;;;;;6.30;1.70;;;;;;;11.21;57.35;102788.72;5085240;28;20054;-77
2023/04/03 11:11:15;;;;;;;6.35;1.77;;;;;;;11.18;55.52;102794.97;5082629;28;20552;-76
2023/04/03 11:14:07;;;;;;;6.78;1.77;;;;;;;11.26;53.66;102788.47;5083938;28;20043;-76
2023/04/03 11:16:40;;;;;;;4.53;1.30;;;;;;;11.56;56.44;102784.19;5082086;28;20043;-76
2023/04/03 11:19:30;;;;;;;5.60;1.40;;;;;;;11.77;53.61;102779.22;5066923;28;20498;-76
2023/04/03 11:22:28;;;;;;;5.80;1.55;;;;;;;11.98;53.88;102769.50;5071130;28;20286;-76
2023/04/03 11:25:10;;;;;;;5.60;1.88;;;;;;;11.96;51.21;102768.25;5086682;28;20680;-78
2023/04/03 11:27:57;;;;;;;2.67;0.80;;;;;;;12.07;50.70;102777.66;5080494;28;20068;-77
2023/04/03 11:30:48;;;;;;;12.63;2.03;;;;;;;12.05;50.29;102764.13;5084732;28;20056;-77
2023/04/03 11:33:42;;;;;;;4.00;1.30;;;;;;;12.09;49.19;102756.69;5077063;28;20051;-76
2023/04/03 11:36:12;;;;;;;3.00;1.30;;;;;;;12.27;50.46;102766.28;5076806;28;20048;-78